Louisville, NE

6:21 PM CST on December 26, 2014 (GMT -0600)
Southridge | Change Station
CLOSE
Current Station
Personal Weather Station
Location: Louisville, NE
Elevation: 1083 ft
Nearby Weather Stations
Active Advisory: Special Statement

Elev 1083 ft 40.99 °N, 96.15 °W | Updated 39 seconds ago

Overcast
Overcast
32.5 °F
Feels Like 32 °F
N
1.0
Wind Variable Wind from NNW
Gusts 6.0 mph

Today
High -- | Low -- °F
--% Chance of Precip.
Yesterday
High -- | Low -- °F
Precip. -- in
7:48 AM 5:02 PM
Waxing Crescent, 30% visible
Pressure 29.99 in
Visibility 3.0 miles
Clouds Overcast 600 ft
Windchill 32 °F
Dew Point 30 °F
Humidity 89%
Rainfall 0.00 in
Snow Depth Not available.
UV 0 out of 12
Pollen .10 out of 12
Air Quality Not available.
Flu Activity Not available.
METAR KPMV 262355Z AUTO 36006KT 3SM BR OVC006 00/M01 A2999 RMK AO2 T00001010 10008 20000

More Conditions Fewer Conditions

Pressure 29.99 in
Visibility 3.0 miles
Clouds Overcast 600 ft
Windchill 32 °F
Dew Point 30 °F
Humidity 89%
Rainfall 0.00 in
Snow Depth Not available.
UV 0 out of 12
Pollen .10 out of 12
Air Quality Not available.
Flu Activity Not available.
METAR KPMV 262355Z AUTO 36006KT 3SM BR OVC006 00/M01 A2999 RMK AO2 T00001010 10008 20000

More Conditions Fewer Conditions

10-Day Weather Forecast

Almanac

Astronomy

Dec. 26, 2014 Rise Set
Actual Time
Civil Twilight
Nautical Twilight
Astronomical Twilight
Moon
Length of Visible Light
Length of Day
Tomorrow will be .
, % of the Moon is Illuminated

Today's Extremes

State Highs State Lows

Community

WunderPhotos

Upload Photos

1,780,794 photos uploaded!

WunderBlogs® & News

Nearby

Air Quality

  Air Quality AQ Index Pollutant
Not available.

Snow Depth

Station Depth Elevation

Earthquake Activity

City Distance Mag. Time & Date
Minimum magnitude displayed is 2.5.

Coastal Water Temperatures

Place Temperature

Nearby Weather Stations